Time;durP1;ratioP1;P1;durP2;ratioP2;P2;SDS_P1;SDS_P2;PMS_P1;PMS_P2;Temp;Humidity;BMP_temperature;BMP_pressure;BME280_temperature;BME280_humidity;BME280_pressure;Samples;Min_cycle;Max_cycle;Signal;HPM_P1;HPM_P2
2023/04/02 00:00:09;;;;;;;7.00;4.07;;;6.30;99.90;;;;;;4997459;28;20033;-80
2023/04/02 00:02:53;;;;;;;14.07;6.28;;;6.30;99.90;;;;;;5003134;28;20034;-79
2023/04/02 00:05:29;;;;;;;11.82;5.45;;;6.30;99.90;;;;;;4978238;28;20028;-79
2023/04/02 00:08:02;;;;;;;6.15;3.08;;;6.30;99.90;;;;;;4998917;28;20302;-80
2023/04/02 00:10:45;;;;;;;13.48;5.35;;;6.20;99.90;;;;;;4990284;28;20034;-81
2023/04/02 00:13:11;;;;;;;15.63;4.45;;;6.20;99.90;;;;;;4985882;28;20057;-79
2023/04/02 00:15:38;;;;;;;8.30;3.23;;;6.20;99.90;;;;;;4999659;28;20030;-81
2023/04/02 00:18:05;;;;;;;6.47;3.20;;;6.20;99.90;;;;;;4982387;28;20082;-78
2023/04/02 00:20:42;;;;;;;11.98;5.05;;;6.20;99.90;;;;;;4978603;28;20310;-83
2023/04/02 00:23:12;;;;;;;9.75;4.38;;;6.10;99.90;;;;;;4995869;28;20036;-78
2023/04/02 00:25:42;;;;;;;7.20;3.45;;;6.10;99.90;;;;;;5006313;28;20074;-78
2023/04/02 00:28:22;;;;;;;8.73;4.35;;;6.10;99.90;;;;;;4995562;28;20125;-80
2023/04/02 00:30:57;;;;;;;10.82;3.90;;;6.10;99.90;;;;;;4991584;28;20077;-85
2023/04/02 00:33:26;;;;;;;6.82;3.78;;;6.10;99.90;;;;;;4995605;28;20027;-80
2023/04/02 00:35:53;;;;;;;9.93;3.33;;;6.00;99.90;;;;;;4991712;28;20033;-78
2023/04/02 00:38:26;;;;;;;10.48;4.25;;;6.10;99.90;;;;;;5007460;28;20034;-78
2023/04/02 00:40:57;;;;;;;7.68;4.63;;;6.10;99.90;;;;;;4988007;28;20031;-78
2023/04/02 00:43:26;;;;;;;9.75;5.38;;;6.10;99.90;;;;;;4995219;28;20464;-78
2023/04/02 00:45:58;;;;;;;6.18;2.70;;;6.10;99.90;;;;;;4995289;28;20078;-78
2023/04/02 00:48:48;;;;;;;7.88;4.38;;;6.10;99.90;;;;;;4993322;28;20076;-78
2023/04/02 00:51:40;;;;;;;7.70;3.72;;;6.00;99.90;;;;;;4985803;28;20141;-77
2023/04/02 00:54:14;;;;;;;11.43;6.13;;;6.00;99.90;;;;;;4984510;28;20034;-78
2023/04/02 00:56:45;;;;;;;14.68;5.53;;;6.00;99.90;;;;;;4977994;28;20022;-81
2023/04/02 01:00:10;;;;;;;12.88;4.82;;;6.00;99.90;;;;;;5009205;28;20030;-82
2023/04/02 01:02:37;;;;;;;7.50;4.10;;;5.90;99.90;;;;;;4929231;29;20032;-78
2023/04/02 01:05:14;;;;;;;5.30;3.35;;;5.90;99.90;;;;;;4938808;29;20090;-79
2023/04/02 01:07:43;;;;;;;5.50;3.33;;;5.90;99.90;;;;;;4938627;29;20035;-64
2023/04/02 01:10:30;;;;;;;4.78;3.15;;;5.90;99.90;;;;;;4938395;29;20036;-64
2023/04/02 01:12:56;;;;;;;8.73;3.58;;;5.90;99.90;;;;;;4931829;29;20056;-64
2023/04/02 01:15:32;;;;;;;11.30;5.10;;;5.90;99.90;;;;;;4938641;29;20323;-63
2023/04/02 01:18:17;;;;;;;10.00;3.75;;;5.90;99.90;;;;;;4938505;29;20051;-63
2023/04/02 01:20:58;;;;;;;9.48;5.07;;;6.00;99.90;;;;;;4938340;29;20533;-62
2023/04/02 01:23:52;;;;;;;7.40;4.18;;;6.00;99.90;;;;;;4938375;29;20039;-64
2023/04/02 01:26:56;;;;;;;6.85;3.90;;;6.00;99.90;;;;;;4938003;29;20062;-64
2023/04/02 01:29:30;;;;;;;8.32;2.95;;;5.90;99.90;;;;;;4937917;29;20046;-63
2023/04/02 01:32:01;;;;;;;8.43;4.72;;;5.90;99.90;;;;;;4938369;29;20048;-64
2023/04/02 01:34:28;;;;;;;11.27;3.00;;;5.90;99.90;;;;;;4937852;29;20408;-63
2023/04/02 01:37:21;;;;;;;6.57;3.70;;;5.90;99.90;;;;;;4935259;29;20036;-63
2023/04/02 01:40:13;;;;;;;11.18;5.63;;;5.80;99.90;;;;;;4977581;28;20050;-63
2023/04/02 01:42:59;;;;;;;8.93;4.80;;;5.80;99.90;;;;;;5006821;28;20425;-79
2023/04/02 01:45:26;;;;;;;6.20;3.65;;;5.80;99.90;;;;;;4998274;28;20648;-63
2023/04/02 01:47:51;;;;;;;9.55;4.88;;;5.70;99.90;;;;;;4994475;28;20031;-63
2023/04/02 01:50:35;;;;;;;8.17;3.17;;;5.60;99.90;;;;;;5006756;28;20037;-63
2023/04/02 01:53:12;;;;;;;3.83;2.45;;;5.60;99.90;;;;;;5012118;28;20035;-64
2023/04/02 01:55:44;;;;;;;10.32;4.18;;;5.60;99.90;;;;;;4997863;28;20023;-63
2023/04/02 01:58:12;;;;;;;1.88;1.27;;;5.60;99.90;;;;;;4997453;28;20670;-64
2023/04/02 02:01:11;;;;;;;6.75;3.53;;;5.60;99.90;;;;;;4998531;28;20325;-63
2023/04/02 02:03:43;;;;;;;3.95;2.17;;;5.50;99.90;;;;;;4997677;28;20029;-63
2023/04/02 02:06:13;;;;;;;10.73;5.40;;;5.50;99.90;;;;;;4997603;28;20018;-78
2023/04/02 02:08:46;;;;;;;6.90;3.58;;;5.50;99.90;;;;;;4996689;28;20027;-64
2023/04/02 02:11:21;;;;;;;3.70;2.63;;;5.50;99.90;;;;;;5000754;28;20034;-64
2023/04/02 02:14:00;;;;;;;9.60;3.85;;;5.40;99.90;;;;;;4997213;28;20042;-64
2023/04/02 02:16:28;;;;;;;1.30;0.93;;;5.40;99.90;;;;;;4997275;28;20031;-63
2023/04/02 02:18:59;;;;;;;9.43;5.15;;;5.50;99.90;;;;;;4997433;28;20034;-76
2023/04/02 02:21:49;;;;;;;6.80;3.53;;;5.40;99.90;;;;;;4997466;28;20030;-63
2023/04/02 02:24:28;;;;;;;5.95;3.88;;;5.40;99.90;;;;;;4997231;28;20073;-76
2023/04/02 02:27:13;;;;;;;4.45;2.83;;;5.40;99.90;;;;;;4996727;28;20026;-63
2023/04/02 02:29:40;;;;;;;2.70;2.00;;;5.40;99.90;;;;;;4980045;28;20048;-79
2023/04/02 02:32:09;;;;;;;4.53;2.25;;;5.40;99.90;;;;;;4996598;28;20022;-63
2023/04/02 02:34:42;;;;;;;3.08;2.63;;;5.40;99.90;;;;;;5001452;28;20357;-63
2023/04/02 02:37:21;;;;;;;3.53;2.17;;;5.40;99.90;;;;;;4998037;28;20022;-63
2023/04/02 02:39:53;;;;;;;8.25;4.10;;;5.30;99.90;;;;;;4996888;28;20018;-63
2023/04/02 02:42:26;;;;;;;9.50;4.35;;;5.30;99.90;;;;;;4996405;28;20446;-63
2023/04/02 02:44:54;;;;;;;9.88;4.38;;;5.40;99.90;;;;;;4997145;28;20099;-63
2023/04/02 02:47:27;;;;;;;13.20;5.40;;;5.30;99.90;;;;;;4996858;28;20031;-63
2023/04/02 02:49:55;;;;;;;10.73;5.63;;;5.30;99.90;;;;;;4997626;28;20015;-81
2023/04/02 02:52:31;;;;;;;6.75;4.20;;;5.20;99.90;;;;;;4996195;28;20018;-62
2023/04/02 02:55:07;;;;;;;10.98;3.90;;;5.20;99.90;;;;;;4996711;28;20022;-63
2023/04/02 02:57:41;;;;;;;7.60;3.17;;;5.30;99.90;;;;;;4997835;28;20049;-64
2023/04/02 03:00:10;;;;;;;6.78;3.70;;;5.20;99.90;;;;;;4989786;28;20322;-63
2023/04/02 03:02:40;;;;;;;9.63;3.50;;;5.20;99.90;;;;;;4996064;28;20023;-63
2023/04/02 03:05:07;;;;;;;10.20;2.95;;;5.20;99.90;;;;;;4996490;28;20039;-63
2023/04/02 03:07:33;;;;;;;4.53;3.00;;;5.20;99.90;;;;;;4996337;28;20023;-63
2023/04/02 03:10:04;;;;;;;1.60;1.35;;;5.10;99.90;;;;;;4996311;28;20030;-63
2023/04/02 03:12:42;;;;;;;9.68;5.50;;;5.20;99.90;;;;;;4997318;28;20126;-63
2023/04/02 03:15:13;;;;;;;13.57;5.63;;;5.20;99.90;;;;;;4996281;28;20025;-63
2023/04/02 03:17:59;;;;;;;6.32;3.75;;;5.10;99.90;;;;;;5008913;28;20022;-80
2023/04/02 03:20:54;;;;;;;4.75;2.75;;;5.00;99.90;;;;;;4995923;28;20325;-63
2023/04/02 03:23:53;;;;;;;13.10;4.75;;;4.90;99.90;;;;;;4994156;28;20038;-63
2023/04/02 03:26:26;;;;;;;10.43;5.78;;;4.90;99.90;;;;;;4992828;28;20038;-63
2023/04/02 03:29:03;;;;;;;4.68;2.70;;;4.80;99.90;;;;;;4995863;28;20066;-63
2023/04/02 03:31:38;;;;;;;5.97;3.60;;;4.80;99.90;;;;;;4996002;28;20019;-75
2023/04/02 03:34:13;;;;;;;3.70;2.17;;;4.70;99.90;;;;;;4995672;28;20844;-63
2023/04/02 03:36:57;;;;;;;6.28;3.97;;;4.60;99.90;;;;;;4996156;28;20025;-63
2023/04/02 03:39:44;;;;;;;4.93;2.92;;;4.60;99.90;;;;;;4995985;28;20022;-63
2023/04/02 03:42:29;;;;;;;4.47;2.88;;;4.50;99.90;;;;;;4995459;28;20434;-79
2023/04/02 03:44:59;;;;;;;9.10;3.97;;;4.50;99.90;;;;;;4995976;28;20037;-64
2023/04/02 03:47:36;;;;;;;9.45;4.00;;;4.50;99.90;;;;;;4995470;28;20041;-62
2023/04/02 03:50:36;;;;;;;5.50;2.75;;;4.50;99.90;;;;;;4997315;28;20322;-63
2023/04/02 03:53:04;;;;;;;2.15;1.25;;;4.50;99.90;;;;;;4995704;28;20041;-63
2023/04/02 03:55:32;;;;;;;5.00;2.08;;;4.40;99.90;;;;;;4995883;28;20330;-63
2023/04/02 03:58:24;;;;;;;7.43;3.72;;;4.40;99.90;;;;;;4995442;28;20034;-63
2023/04/02 04:01:16;;;;;;;3.97;2.55;;;4.40;99.90;;;;;;4995282;28;20113;-63
2023/04/02 04:03:46;;;;;;;6.97;3.55;;;4.30;99.90;;;;;;5003011;28;20022;-63
2023/04/02 04:06:21;;;;;;;8.48;3.70;;;4.30;99.90;;;;;;4995343;28;20034;-63
2023/04/02 04:09:10;;;;;;;8.07;4.73;;;4.20;99.90;;;;;;4995533;28;20027;-63
2023/04/02 04:11:42;;;;;;;4.85;2.40;;;4.20;99.90;;;;;;4994913;28;20567;-63
2023/04/02 04:14:19;;;;;;;4.97;3.38;;;4.20;99.90;;;;;;4996460;28;20031;-63
2023/04/02 04:16:53;;;;;;;8.23;1.92;;;4.20;99.90;;;;;;5009330;28;20426;-63
2023/04/02 04:19:31;;;;;;;8.05;2.67;;;4.20;99.90;;;;;;4995438;28;20061;-63
2023/04/02 04:22:17;;;;;;;8.93;3.15;;;4.20;99.90;;;;;;4995133;28;20323;-63
2023/04/02 04:24:44;;;;;;;;;;;4.10;99.90;;;;;;4996065;28;20049;-63
2023/04/02 04:27:51;;;;;;;2.65;1.85;;;4.10;99.90;;;;;;4993213;28;19906;-63
2023/04/02 04:31:07;;;;;;;6.22;2.97;;;4.10;99.90;;;;;;5000842;28;20329;-64
2023/04/02 04:33:40;;;;;;;7.75;3.95;;;4.10;99.90;;;;;;4957986;29;20128;-64
2023/04/02 04:36:27;;;;;;;5.63;3.38;;;4.10;99.90;;;;;;4946137;29;20031;-63
2023/04/02 04:38:58;;;;;;;6.90;3.97;;;4.00;99.90;;;;;;4958192;29;20035;-63
2023/04/02 04:41:30;;;;;;;16.65;3.85;;;4.00;99.90;;;;;;4948584;29;20035;-64
2023/04/02 04:43:59;;;;;;;4.95;2.50;;;4.00;99.90;;;;;;4957939;29;20035;-63
2023/04/02 04:46:46;;;;;;;3.05;2.28;;;3.90;99.90;;;;;;4958446;29;20102;-63
2023/04/02 04:49:17;;;;;;;8.98;3.58;;;3.80;99.90;;;;;;4957900;29;20063;-63
2023/04/02 04:51:53;;;;;;;3.15;2.03;;;3.80;99.90;;;;;;4957791;29;20166;-78
2023/04/02 04:54:19;;;;;;;4.50;1.75;;;3.70;99.90;;;;;;4957705;29;20443;-62
2023/04/02 04:56:54;;;;;;;7.18;3.17;;;3.60;99.90;;;;;;4955164;28;20079;-63
2023/04/02 04:59:26;;;;;;;7.47;3.13;;;3.60;99.90;;;;;;4956849;29;20042;-63
2023/04/02 05:02:14;;;;;;;3.33;2.13;;;3.50;99.90;;;;;;4957632;29;20308;-63
2023/04/02 05:04:47;;;;;;;5.43;2.10;;;3.50;99.90;;;;;;4956023;29;20054;-63
2023/04/02 05:07:20;;;;;;;8.25;3.92;;;3.50;99.90;;;;;;4974987;28;20041;-62
2023/04/02 05:10:07;;;;;;;4.82;2.60;;;3.50;99.90;;;;;;5008819;28;20081;-64
2023/04/02 05:12:48;;;;;;;4.93;2.28;;;3.40;99.90;;;;;;5006386;28;20085;-63
2023/04/02 05:15:32;;;;;;;7.40;1.23;;;3.20;99.90;;;;;;5013092;28;20033;-63
2023/04/02 05:18:19;;;;;;;1.13;1.02;;;3.10;99.90;;;;;;5013036;28;20041;-63
2023/04/02 05:21:15;;;;;;;1.52;1.42;;;3.00;99.90;;;;;;4998343;28;20093;-63
2023/04/02 05:24:26;;;;;;;2.90;2.40;;;2.90;99.90;;;;;;4997978;28;20061;-78
2023/04/02 05:26:56;;;;;;;8.38;1.83;;;2.90;99.90;;;;;;4998028;28;20018;-76
2023/04/02 05:29:33;;;;;;;8.55;2.92;;;2.80;99.90;;;;;;4998479;28;20018;-63
2023/04/02 05:32:38;;;;;;;1.23;0.85;;;2.70;99.90;;;;;;4997650;28;20033;-63
2023/04/02 05:35:05;;;;;;;4.18;2.10;;;2.70;99.90;;;;;;4997723;28;20042;-63
2023/04/02 05:37:32;;;;;;;4.30;1.85;;;2.70;99.90;;;;;;4997517;28;20409;-79
2023/04/02 05:40:14;;;;;;;3.63;2.10;;;2.60;99.90;;;;;;4999152;28;20365;-62
2023/04/02 05:42:43;;;;;;;2.88;1.92;;;2.60;99.90;;;;;;5009941;28;20025;-63
2023/04/02 05:45:12;;;;;;;5.22;2.50;;;2.60;99.90;;;;;;4997997;28;20023;-63
2023/04/02 05:47:42;;;;;;;4.10;1.35;;;2.50;99.90;;;;;;4997438;28;20097;-62
2023/04/02 05:50:08;;;;;;;4.35;1.58;;;2.50;99.90;;;;;;4980575;28;20029;-62
2023/04/02 05:52:59;;;;;;;4.55;1.45;;;2.50;99.90;;;;;;4998512;28;20069;-76
2023/04/02 05:55:56;;;;;;;1.80;1.63;;;2.50;99.90;;;;;;4997859;28;20031;-62
2023/04/02 05:58:45;;;;;;;4.82;1.42;;;2.50;99.90;;;;;;4997407;28;20105;-62
2023/04/02 06:01:14;;;;;;;4.40;2.35;;;2.50;99.90;;;;;;5011555;28;20069;-62
2023/04/02 06:03:48;;;;;;;6.15;3.17;;;2.50;99.90;;;;;;5017389;28;20369;-62
2023/04/02 06:06:32;;;;;;;3.90;1.38;;;2.50;99.90;;;;;;4998229;28;20370;-63
2023/04/02 06:09:04;;;;;;;5.20;1.70;;;2.50;99.90;;;;;;5017046;28;20036;-62
2023/04/02 06:11:40;;;;;;;9.02;3.50;;;2.50;99.90;;;;;;4988158;28;20064;-63
2023/04/02 06:14:11;;;;;;;1.05;0.77;;;2.50;99.90;;;;;;5013851;28;20022;-63
2023/04/02 06:16:37;;;;;;;3.38;1.60;;;2.50;99.90;;;;;;5011035;28;20109;-63
2023/04/02 06:19:14;;;;;;;4.70;1.73;;;2.50;99.90;;;;;;5007661;28;20121;-62
2023/04/02 06:21:48;;;;;;;;;;;2.50;99.90;;;;;;5000056;28;20019;-62
2023/04/02 06:24:19;;;;;;;6.35;2.67;;;2.50;99.90;;;;;;4986776;28;19913;-62
2023/04/02 06:27:01;;;;;;;6.22;2.72;;;2.50;99.90;;;;;;5002916;28;20075;-64
2023/04/02 06:29:32;;;;;;;6.78;2.38;;;2.40;99.90;;;;;;4997152;28;20097;-63
2023/04/02 06:32:01;;;;;;;3.58;1.73;;;2.50;99.90;;;;;;4997646;28;20038;-76
2023/04/02 06:34:30;;;;;;;8.48;3.13;;;2.40;99.90;;;;;;4996937;28;20029;-63
2023/04/02 06:37:03;;;;;;;2.55;1.55;;;2.40;99.90;;;;;;4996920;28;20023;-63
2023/04/02 06:39:29;;;;;;;2.80;1.60;;;2.40;99.90;;;;;;4996877;28;20053;-76
2023/04/02 06:42:33;;;;;;;3.60;2.17;;;2.40;99.90;;;;;;4996781;28;20061;-63
2023/04/02 06:45:00;;;;;;;3.58;2.10;;;2.50;99.90;;;;;;4929491;29;20036;-62
2023/04/02 06:47:29;;;;;;;3.22;1.65;;;2.50;99.90;;;;;;4936640;29;20042;-63
2023/04/02 06:50:40;;;;;;;0.90;0.77;;;2.50;99.90;;;;;;4936707;29;20032;-63
2023/04/02 06:53:14;;;;;;;3.60;1.95;;;2.50;99.90;;;;;;4898716;29;20044;-62
2023/04/02 06:55:43;;;;;;;2.22;0.95;;;2.50;99.90;;;;;;4897451;29;20065;-62
2023/04/02 06:58:09;;;;;;;2.55;1.55;;;2.40;99.90;;;;;;4898732;29;20037;-62
2023/04/02 07:00:44;;;;;;;7.53;1.88;;;2.30;99.90;;;;;;4898484;29;20343;-63
2023/04/02 07:03:22;;;;;;;1.95;1.25;;;2.30;99.90;;;;;;4898388;29;20032;-63
2023/04/02 07:05:48;;;;;;;5.78;2.30;;;2.40;99.90;;;;;;4898575;29;20439;-63
2023/04/02 07:08:14;;;;;;;5.65;1.67;;;2.40;99.90;;;;;;4897852;29;20082;-62
2023/04/02 07:10:41;;;;;;;2.85;1.63;;;2.30;99.90;;;;;;4898505;29;20712;-62
2023/04/02 07:13:10;;;;;;;3.15;1.73;;;2.30;99.90;;;;;;4911378;29;20078;-62
2023/04/02 07:15:36;;;;;;;4.20;2.22;;;2.40;99.90;;;;;;4917080;29;20345;-63
2023/04/02 07:18:02;;;;;;;5.77;2.87;;;2.40;99.90;;;;;;4923766;28;20072;-77
2023/04/02 07:20:36;;;;;;;3.10;2.07;;;2.50;99.90;;;;;;4978965;28;20349;-63
2023/04/02 07:23:02;;;;;;;1.42;0.73;;;2.50;99.90;;;;;;4982881;28;20054;-62
2023/04/02 07:25:28;;;;;;;6.03;2.38;;;2.50;99.90;;;;;;4974235;28;20031;-77
2023/04/02 07:27:55;;;;;;;1.03;1.00;;;2.50;99.90;;;;;;4974524;28;20390;-62
2023/04/02 07:30:21;;;;;;;3.50;1.63;;;2.50;99.90;;;;;;4989598;28;20199;-62
2023/04/02 07:32:47;;;;;;;1.03;1.00;;;2.40;99.90;;;;;;4977353;28;20385;-62
2023/04/02 07:35:13;;;;;;;6.55;2.17;;;2.50;99.90;;;;;;4976542;28;20256;-79
2023/04/02 07:37:40;;;;;;;6.65;2.45;;;2.60;99.90;;;;;;4976081;28;20061;-63
2023/04/02 07:40:14;;;;;;;1.23;1.08;;;2.60;99.90;;;;;;4987730;28;20023;-75
2023/04/02 07:42:40;;;;;;;1.58;1.13;;;2.60;99.90;;;;;;4977058;28;20027;-62
2023/04/02 07:45:06;;;;;;;1.60;1.33;;;2.50;99.90;;;;;;4978165;28;20085;-62
2023/04/02 07:47:32;;;;;;;1.80;1.45;;;2.60;99.90;;;;;;4978699;28;20019;-62
2023/04/02 07:49:58;;;;;;;5.40;1.67;;;2.70;99.90;;;;;;5004649;28;20072;-62
2023/04/02 07:52:24;;;;;;;3.80;1.87;;;2.80;99.90;;;;;;5015352;28;20034;-63
2023/04/02 07:54:50;;;;;;;5.87;1.80;;;2.80;99.90;;;;;;5008191;28;20096;-62
2023/04/02 07:57:16;;;;;;;2.43;1.07;;;2.60;99.90;;;;;;5008570;28;20105;-62
2023/04/02 07:59:42;;;;;;;3.70;2.20;;;2.60;99.90;;;;;;4988762;28;20379;-75
2023/04/02 08:02:20;;;;;;;4.57;1.87;;;2.60;99.90;;;;;;4994223;28;20023;-63
2023/04/02 08:04:50;;;;;;;5.35;2.08;;;2.90;99.90;;;;;;4994761;28;20030;-62
2023/04/02 08:07:17;;;;;;;1.88;1.58;;;3.10;99.90;;;;;;4994885;28;20034;-63
2023/04/02 08:09:43;;;;;;;1.52;1.35;;;3.10;99.90;;;;;;4997910;28;20029;-63
2023/04/02 08:12:13;;;;;;;4.80;1.47;;;2.90;99.90;;;;;;4994547;28;20049;-62
2023/04/02 08:14:39;;;;;;;4.72;1.63;;;3.00;99.90;;;;;;4994419;28;20337;-76
2023/04/02 08:17:05;;;;;;;11.53;2.07;;;2.90;99.90;;;;;;4994817;28;20026;-63
2023/04/02 08:19:32;;;;;;;1.50;1.17;;;2.60;99.90;;;;;;4994403;28;20047;-63
2023/04/02 08:21:58;;;;;;;4.40;1.48;;;2.60;99.90;;;;;;4995156;28;20117;-63
2023/04/02 08:24:23;;;;;;;2.07;1.37;;;3.00;99.90;;;;;;4996562;28;20062;-63
2023/04/02 08:26:50;;;;;;;3.43;1.83;;;3.50;99.90;;;;;;4995595;28;20034;-63
2023/04/02 08:29:16;;;;;;;5.47;1.45;;;3.80;99.90;;;;;;5008489;28;20030;-63
2023/04/02 08:31:42;;;;;;;3.92;1.27;;;3.90;99.90;;;;;;4995157;28;20034;-78
2023/04/02 08:34:08;;;;;;;7.27;2.10;;;4.00;99.90;;;;;;4995076;28;20435;-62
2023/04/02 08:36:36;;;;;;;6.13;2.03;;;4.10;99.90;;;;;;4996484;28;20026;-62
2023/04/02 08:39:03;;;;;;;2.22;0.95;;;4.40;99.90;;;;;;4992636;28;20021;-63
2023/04/02 08:41:43;;;;;;;4.15;1.92;;;4.30;99.90;;;;;;5004267;28;20031;-63
2023/04/02 08:44:16;;;;;;;4.20;2.15;;;4.20;99.90;;;;;;4997324;28;20022;-62
2023/04/02 08:46:55;;;;;;;1.38;1.05;;;4.10;99.90;;;;;;5004180;28;20041;-76
2023/04/02 08:49:36;;;;;;;3.88;1.95;;;4.00;99.90;;;;;;4995348;28;20166;-62
2023/04/02 08:52:02;;;;;;;3.53;1.67;;;3.90;99.90;;;;;;5006324;28;20026;-78
2023/04/02 08:54:42;;;;;;;2.20;1.90;;;3.90;99.90;;;;;;5012807;28;20084;-63
2023/04/02 08:57:38;;;;;;;2.15;1.65;;;4.20;99.90;;;;;;5003093;28;20096;-63
2023/04/02 09:00:22;;;;;;;9.30;2.88;;;4.40;99.90;;;;;;4999869;28;20028;-62
2023/04/02 09:03:26;;;;;;;4.05;1.95;;;4.60;99.90;;;;;;4979119;28;20045;-63
2023/04/02 09:05:53;;;;;;;4.47;1.27;;;4.80;99.90;;;;;;4953481;28;20331;-76
2023/04/02 09:08:23;;;;;;;;;;;4.80;99.90;;;;;;4951774;28;20047;-63
2023/04/02 09:11:10;;;;;;;0.88;0.88;;;5.00;99.90;;;;;;4953356;28;19914;-63
2023/04/02 09:13:45;;;;;;;5.50;1.50;;;4.90;99.90;;;;;;4953105;28;20061;-63
2023/04/02 09:16:14;;;;;;;6.53;1.88;;;5.10;99.90;;;;;;4953085;29;20031;-62
2023/04/02 09:18:42;;;;;;;3.35;1.88;;;5.10;99.90;;;;;;4954013;28;20039;-69
2023/04/02 09:21:29;;;;;;;6.75;2.08;;;5.40;99.90;;;;;;4956726;28;20062;-62
2023/04/02 09:23:56;;;;;;;3.03;1.60;;;5.50;99.90;;;;;;4956584;28;20035;-62
2023/04/02 09:26:24;;;;;;;3.15;1.67;;;5.50;99.90;;;;;;4956613;29;20031;-63
2023/04/02 09:28:52;;;;;;;2.28;1.23;;;5.60;99.90;;;;;;4951301;28;20043;-73
2023/04/02 09:31:47;;;;;;;2.75;1.48;;;5.60;99.90;;;;;;4956380;29;20108;-63
2023/04/02 09:34:35;;;;;;;4.50;1.48;;;5.80;99.90;;;;;;4956452;29;20083;-63
2023/04/02 09:37:15;;;;;;;5.70;1.48;;;6.00;99.90;;;;;;4957153;29;20027;-63
2023/04/02 09:39:41;;;;;;;1.77;1.33;;;5.80;99.90;;;;;;4957614;29;20031;-63
2023/04/02 09:42:32;;;;;;;3.17;1.20;;;5.90;99.90;;;;;;4990119;28;20332;-62
2023/04/02 09:45:18;;;;;;;0.05;0.05;;;5.70;99.90;;;;;;4999384;28;20324;-62
2023/04/02 09:47:44;;;;;;;0.85;0.77;;;5.80;99.90;;;;;;5010266;28;20015;-63
2023/04/02 09:50:26;;;;;;;3.63;1.47;;;5.70;99.90;;;;;;4997152;28;20370;-62
2023/04/02 09:52:52;;;;;;;2.28;1.08;;;5.90;99.90;;;;;;4996924;28;20093;-63
2023/04/02 09:55:27;;;;;;;5.78;1.75;;;6.10;99.90;;;;;;5008114;28;20405;-62
2023/04/02 09:58:19;;;;;;;4.13;1.55;;;6.30;99.90;;;;;;4998626;28;20361;-62
2023/04/02 10:00:53;;;;;;;4.85;0.95;;;6.40;99.90;;;;;;4994179;28;20454;-62
2023/04/02 10:03:31;;;;;;;5.32;1.85;;;6.40;99.90;;;;;;4986485;28;20413;-62
2023/04/02 10:06:10;;;;;;;3.72;0.95;;;6.40;99.90;;;;;;5001777;28;20105;-62
2023/04/02 10:08:37;;;;;;;2.45;1.10;;;6.20;99.90;;;;;;4996877;28;20023;-62
2023/04/02 10:11:10;;;;;;;1.17;0.68;;;6.20;99.90;;;;;;5009352;28;20061;-63
2023/04/02 10:13:54;;;;;;;5.88;0.73;;;6.20;99.90;;;;;;4997814;28;20630;-62
2023/04/02 10:16:31;;;;;;;2.20;1.15;;;6.30;99.90;;;;;;5000145;28;20303;-63
2023/04/02 10:19:13;;;;;;;1.58;0.93;;;6.30;99.90;;;;;;4996914;28;20441;-62
2023/04/02 10:21:41;;;;;;;1.85;1.00;;;6.30;99.90;;;;;;4997796;28;20030;-62
2023/04/02 10:24:15;;;;;;;1.27;1.17;;;6.40;99.90;;;;;;4997004;28;20326;-63
2023/04/02 10:27:10;;;;;;;4.68;1.05;;;6.40;99.90;;;;;;4996699;28;20034;-79
2023/04/02 10:30:13;;;;;;;3.72;1.20;;;6.50;99.90;;;;;;4995771;28;20026;-62
2023/04/02 10:33:11;;;;;;;5.72;1.27;;;6.60;99.90;;;;;;5002704;28;20313;-62
2023/04/02 10:35:41;;;;;;;3.15;1.38;;;6.80;99.90;;;;;;4999245;28;20118;-62
2023/04/02 10:38:22;;;;;;;1.65;0.82;;;6.80;99.90;;;;;;5006564;28;20034;-63
2023/04/02 10:41:05;;;;;;;2.50;0.88;;;6.90;99.90;;;;;;4995638;28;20026;-63
2023/04/02 10:44:04;;;;;;;3.28;1.33;;;6.90;99.90;;;;;;5007125;28;20026;-74
2023/04/02 10:47:15;;;;;;;7.35;1.48;;;7.00;99.90;;;;;;4994288;28;20483;-63
2023/04/02 10:49:51;;;;;;;3.15;1.25;;;7.30;99.90;;;;;;4992894;28;20179;-63
2023/04/02 10:52:28;;;;;;;3.85;0.77;;;7.40;99.90;;;;;;5005075;28;20030;-62
2023/04/02 10:55:14;;;;;;;2.45;1.05;;;7.40;99.90;;;;;;4996607;28;20038;-75
2023/04/02 10:57:42;;;;;;;3.63;0.95;;;7.30;99.90;;;;;;5013665;28;20309;-63
2023/04/02 11:00:11;;;;;;;1.98;0.65;;;7.50;99.90;;;;;;4998806;28;20421;-76
2023/04/02 11:02:55;;;;;;;2.22;0.50;;;7.50;99.90;;;;;;4996539;28;20030;-62
2023/04/02 11:05:52;;;;;;;2.63;0.65;;;7.40;99.90;;;;;;4996655;28;20030;-63
2023/04/02 11:08:40;;;;;;;0.50;0.40;;;7.40;99.90;;;;;;4996066;28;20311;-62
2023/04/02 11:11:11;;;;;;;0.30;0.28;;;7.50;99.90;;;;;;5005837;28;20025;-62
2023/04/02 11:13:59;;;;;;;0.63;0.35;;;7.40;99.90;;;;;;4996255;28;20061;-63
2023/04/02 11:16:26;;;;;;;0.82;0.43;;;7.40;99.90;;;;;;4996192;28;20030;-62
2023/04/02 11:19:09;;;;;;;2.83;0.50;;;7.40;99.90;;;;;;5005174;28;20025;-74
2023/04/02 11:21:37;;;;;;;2.38;0.75;;;7.50;99.90;;;;;;4998805;28;20037;-65
2023/04/02 11:24:03;;;;;;;3.38;1.02;;;7.70;99.90;;;;;;4995972;28;20312;-63
2023/04/02 11:26:42;;;;;;;;;;;7.90;99.90;;;;;;4996861;28;20030;-63
2023/04/02 11:29:22;;;;;;;3.05;0.88;;;7.60;99.90;;;;;;4995673;28;20220;-63
2023/04/02 11:31:49;;;;;;;1.02;0.43;;;7.90;99.90;;;;;;4995992;28;20031;-63
2023/04/02 11:34:54;;;;;;;6.53;1.02;;;7.90;99.90;;;;;;4995586;28;20321;-62
2023/04/02 11:37:41;;;;;;;2.35;0.93;;;8.10;99.90;;;;;;4952060;29;20059;-63
2023/04/02 11:40:10;;;;;;;1.55;0.85;;;8.30;99.90;;;;;;4936034;29;20028;-63
2023/04/02 11:42:42;;;;;;;1.88;0.90;;;8.30;99.90;;;;;;4976820;28;20329;-62
2023/04/02 11:45:25;;;;;;;0.75;0.25;;;8.50;99.90;;;;;;4995310;28;20037;-63
2023/04/02 11:47:59;;;;;;;1.75;0.73;;;8.20;99.90;;;;;;4994656;28;20037;-63
2023/04/02 11:50:28;;;;;;;2.95;0.95;;;8.10;99.90;;;;;;4995429;28;20616;-64
2023/04/02 11:53:03;;;;;;;3.58;0.85;;;8.10;99.90;;;;;;5005754;28;20034;-64
2023/04/02 11:55:33;;;;;;;1.48;0.90;;;8.20;99.90;;;;;;4994947;28;20113;-63
2023/04/02 11:58:21;;;;;;;2.47;0.90;;;8.10;99.90;;;;;;4995939;28;20105;-63
2023/04/02 12:01:31;;;;;;;0.75;0.57;;;8.40;99.90;;;;;;5000086;28;20058;-64
2023/04/02 12:04:38;;;;;;;1.25;0.90;;;8.40;99.90;;;;;;4995574;28;20030;-63
2023/04/02 12:07:25;;;;;;;6.53;1.48;;;8.30;99.90;;;;;;4965435;28;20033;-63
2023/04/02 12:09:56;;;;;;;2.70;0.75;;;8.50;99.90;;;;;;4996291;28;20037;-63
2023/04/02 12:12:31;;;;;;;1.63;1.40;;;8.70;99.90;;;;;;4995453;28;20314;-62
2023/04/02 12:14:58;;;;;;;1.00;0.70;;;8.70;99.90;;;;;;4992624;28;20053;-63
2023/04/02 12:17:33;;;;;;;2.65;0.50;;;8.80;99.90;;;;;;4994807;28;20081;-63
2023/04/02 12:20:08;;;;;;;2.88;0.90;;;8.70;99.90;;;;;;4994302;28;20026;-63
2023/04/02 12:22:40;;;;;;;5.03;1.40;;;8.70;99.90;;;;;;5001898;28;20018;-63
2023/04/02 12:25:18;;;;;;;1.77;0.90;;;8.80;99.90;;;;;;5000054;28;20029;-63
2023/04/02 12:27:47;;;;;;;2.53;1.02;;;9.00;99.90;;;;;;4976901;28;20568;-75
2023/04/02 12:30:21;;;;;;;3.65;0.90;;;9.10;99.90;;;;;;4990200;28;20583;-63
2023/04/02 12:32:47;;;;;;;3.10;1.08;;;9.00;99.90;;;;;;5013849;28;20030;-63
2023/04/02 12:35:29;;;;;;;0.65;0.50;;;9.10;99.90;;;;;;4983633;28;20069;-78
2023/04/02 12:37:56;;;;;;;3.15;1.08;;;9.20;99.90;;;;;;4998257;28;20771;-63
2023/04/02 12:40:24;;;;;;;10.43;0.88;;;9.30;99.90;;;;;;5006072;28;20022;-63
2023/04/02 12:42:50;;;;;;;3.88;0.80;;;9.50;99.90;;;;;;5003318;28;20022;-63
2023/04/02 12:45:29;;;;;;;0.57;0.50;;;9.70;99.90;;;;;;5000173;28;20029;-63
2023/04/02 12:47:56;;;;;;;5.93;1.55;;;9.70;99.90;;;;;;4996819;28;20086;-63
2023/04/02 12:50:22;;;;;;;2.35;0.85;;;9.50;99.90;;;;;;4995268;28;20030;-63
2023/04/02 12:52:53;;;;;;;0.70;0.40;;;9.60;99.90;;;;;;4995675;28;20117;-63
2023/04/02 12:55:23;;;;;;;2.03;1.02;;;9.30;99.90;;;;;;4999051;28;20026;-63
2023/04/02 12:57:53;;;;;;;4.00;0.93;;;9.30;99.90;;;;;;5012727;28;20034;-63
2023/04/02 13:00:19;;;;;;;1.80;0.90;;;9.20;99.90;;;;;;5007714;28;20084;-63
2023/04/02 13:02:49;;;;;;;2.58;0.95;;;9.20;99.90;;;;;;4981445;28;20497;-79
2023/04/02 13:05:35;;;;;;;4.47;1.10;;;9.30;99.90;;;;;;4998462;28;20037;-63
2023/04/02 13:08:03;;;;;;;1.73;0.98;;;9.00;99.90;;;;;;4998813;28;20034;-62
2023/04/02 13:10:29;;;;;;;2.95;1.42;;;9.20;99.90;;;;;;4997372;28;20032;-64
2023/04/02 13:13:00;;;;;;;2.78;1.05;;;9.20;99.90;;;;;;4981206;28;20058;-62
2023/04/02 13:15:31;;;;;;;1.55;0.75;;;9.20;99.90;;;;;;4998503;28;20426;-63
2023/04/02 13:18:11;;;;;;;2.65;1.25;;;9.10;99.90;;;;;;4998888;28;20027;-63
2023/04/02 13:20:38;;;;;;;2.33;0.90;;;9.20;99.90;;;;;;4998414;28;20014;-63
2023/04/02 13:23:22;;;;;;;;;;;9.30;99.90;;;;;;5010295;28;20105;-63
2023/04/02 13:25:49;;;;;;;1.33;0.38;;;9.30;99.90;;;;;;5004979;28;20300;-63
2023/04/02 13:28:15;;;;;;;2.42;0.80;;;9.40;99.90;;;;;;5018123;28;20032;-62
2023/04/02 13:30:40;;;;;;;8.03;1.00;;;9.50;99.90;;;;;;5013633;28;20109;-62
2023/04/02 13:33:06;;;;;;;7.47;1.20;;;9.50;99.90;;;;;;4998275;28;20066;-62
2023/04/02 13:35:32;;;;;;;7.97;1.03;;;9.70;99.90;;;;;;4997953;28;20030;-62
2023/04/02 13:38:01;;;;;;;2.43;0.80;;;9.90;99.90;;;;;;4986006;28;20026;-63
2023/04/02 13:40:27;;;;;;;4.05;0.90;;;9.80;99.90;;;;;;5003088;28;20480;-63
2023/04/02 13:42:53;;;;;;;0.30;0.30;;;9.60;99.90;;;;;;5003374;28;20034;-62